Quick Links (Output Below):   Max & Min Temps   /   Climate Reports   /   Zone Forecasts
River Forecasts   /   Forestry Forecasts   /   Aviation Forecasts   /   Radars   /   Features

Terminal Aerodrome Forecast (Harrison)

Pick a Site:
Arkadelphia | El Dorado | Fayetteville | Fort Smith | Harrison | Highfill | Hot Springs | Jonesboro
Little Rock | Monticello | Mountain Home | Pine Bluff | Texarkana
 Forecast 

KHRO 271130Z 2712/2812 33004KT P6SM VCSH BKN100
     FM271600 34006KT P6SM VCTS BKN060CB BKN100
      TEMPO 2718/2722 3SM TSRA BR BKN030CB
     FM280100 03005KT P6SM BKN100 BKN250
     FM280600 VRB03KT P6SM SCT250=


 Latest METARs (Observations) 
How to Decode METARs
14Z KHRO 271353Z AUTO 30005KT 10SM FEW006 23/22 A3016 RMK AO2 SLP196
         T02330222
         
13Z KHRO 271253Z AUTO 26003KT 10SM CLR 23/22 A3015 RMK AO2 SLP193
         T02280222
         
12Z KHRO 271153Z AUTO 28004KT 10SM CLR 22/21 A3013 RMK AO2 SLP187
         60000 70036 T02170211 10222 20211 55001
         
11Z KHRO 271053Z AUTO 00000KT 10SM FEW110 22/21 A3013 RMK AO2 SLP185
         T02170211
         
10Z KHRO 270953Z AUTO 34003KT 10SM CLR 22/21 A3013 RMK AO2 SLP186
         T02170211
         
09Z KHRO 270853Z AUTO 00000KT 10SM CLR 22/21 A3013 RMK AO2 RAE02
         SLP187 P0000 60000 T02170211 53005
         
08Z KHRO 270753Z AUTO 31005KT 10SM -RA FEW065 FEW080 SCT100 22/21
         A3012 RMK AO2 RAB40 SLP182 P0000 T02170211
         
07Z KHRO 270653Z AUTO 33007KT 10SM CLR 22/21 A3012 RMK AO2 SLP181
         T02170211
         
06Z KHRO 270553Z AUTO 26006KT 10SM CLR 22/21 A3012 RMK AO2 LTG DSNT S
         SLP182 60036 T02220206 10322 20217 403390217 58002
         
05Z KHRO 270453Z AUTO 22004KT 10SM FEW055 SCT090 SCT110 22/21 A3013
         RMK AO2 SLP188 T02220211
         
***** Today's Observations (Above) *****


Back to Main Page
http://www.srh.noaa.gov/lzk/qfcst.php

USA.gov is the U.S. government's official web portal to all federal, state and local government web resources and services.